Terminal Aerodrome Forecast
Issued by NWS

Home | Current Version | Previous Version | Text Only | Print | Product List | Glossary On
Versions: 1 2 3 4 5 6 7 8 9 10 11 12 13 14 15
000
FTUS43 KFGF 222300
TAFDVL
TAF
KDVL 222326Z 2300/2324 13007KT P6SM BKN250
     FM230300 19009KT P6SM BKN090
     FM230900 23011KT P6SM BKN080
     FM231500 26013KT P6SM BKN025
     FM231800 32020G28KT 2SM -SN BKN010
      AMD LTD TO CLD VIS AND WIND=

USA.gov is the U.S. government's official web portal to all federal, state and local government web resources and services.